sensor_id;sensor_type;location;lat;lon;timestamp;pressure;altitude;pressure_sealevel;temperature;humidity
17383;BME280;8809;51.892;8.384;2023-07-16T00:00:48;99951.22;;;21.01;100.00
17383;BME280;8809;51.892;8.384;2023-07-16T00:03:16;99965.38;;;21.00;100.00
17383;BME280;8809;51.892;8.384;2023-07-16T00:05:43;99957.44;;;20.97;100.00
17383;BME280;8809;51.892;8.384;2023-07-16T00:08:10;99963.63;;;20.96;100.00
17383;BME280;8809;51.892;8.384;2023-07-16T00:10:38;99973.41;;;20.94;100.00
17383;BME280;8809;51.892;8.384;2023-07-16T00:13:07;99971.63;;;20.93;100.00
17383;BME280;8809;51.892;8.384;2023-07-16T00:15:34;99954.94;;;20.85;100.00
17383;BME280;8809;51.892;8.384;2023-07-16T00:18:01;99949.66;;;20.82;100.00
17383;BME280;8809;51.892;8.384;2023-07-16T00:20:28;99952.31;;;20.81;100.00
17383;BME280;8809;51.892;8.384;2023-07-16T00:22:56;99955.88;;;20.77;100.00
17383;BME280;8809;51.892;8.384;2023-07-16T00:25:23;99967.41;;;20.74;100.00
17383;BME280;8809;51.892;8.384;2023-07-16T00:27:50;99969.19;;;20.72;100.00
17383;BME280;8809;51.892;8.384;2023-07-16T00:30:19;99985.13;;;20.70;100.00
17383;BME280;8809;51.892;8.384;2023-07-16T00:32:46;99978.06;;;20.68;100.00
17383;BME280;8809;51.892;8.384;2023-07-16T00:35:13;99985.19;;;20.66;100.00
17383;BME280;8809;51.892;8.384;2023-07-16T00:37:40;99979.88;;;20.63;100.00
17383;BME280;8809;51.892;8.384;2023-07-16T00:40:11;99972.81;;;20.62;100.00
17383;BME280;8809;51.892;8.384;2023-07-16T00:42:38;99986.97;;;20.61;100.00
17383;BME280;8809;51.892;8.384;2023-07-16T00:45:32;99988.75;;;20.60;100.00
17383;BME280;8809;51.892;8.384;2023-07-16T00:47:59;99983.44;;;20.59;100.00
17383;BME280;8809;51.892;8.384;2023-07-16T00:50:36;99983.44;;;20.59;100.00
17383;BME280;8809;51.892;8.384;2023-07-16T00:53:05;99977.31;;;20.57;100.00
17383;BME280;8809;51.892;8.384;2023-07-16T00:55:36;99978.19;;;20.56;100.00
17383;BME280;8809;51.892;8.384;2023-07-16T00:58:05;99981.75;;;20.53;100.00
17383;BME280;8809;51.892;8.384;2023-07-16T01:00:34;99982.63;;;20.52;100.00
17383;BME280;8809;51.892;8.384;2023-07-16T01:03:04;99991.47;;;20.48;100.00
17383;BME280;8809;51.892;8.384;2023-07-16T01:05:38;99996.81;;;20.47;100.00
17383;BME280;8809;51.892;8.384;2023-07-16T01:08:09;100005.66;;;20.46;100.00
17383;BME280;8809;51.892;8.384;2023-07-16T01:10:37;100001.25;;;20.45;100.00
17383;BME280;8809;51.892;8.384;2023-07-16T01:13:05;99996.84;;;20.44;100.00
17383;BME280;8809;51.892;8.384;2023-07-16T01:15:33;100003.03;;;20.43;100.00
17383;BME280;8809;51.892;8.384;2023-07-16T01:18:00;100001.25;;;20.42;100.00
17383;BME280;8809;51.892;8.384;2023-07-16T01:20:27;99986.25;;;20.41;100.00
17383;BME280;8809;51.892;8.384;2023-07-16T01:23:18;100001.28;;;20.40;100.00
17383;BME280;8809;51.892;8.384;2023-07-16T01:26:08;99987.19;;;20.36;100.00
17383;BME280;8809;51.892;8.384;2023-07-16T01:31:42;99994.25;;;20.33;100.00
17383;BME280;8809;51.892;8.384;2023-07-16T01:34:11;99997.78;;;20.32;100.00
17383;BME280;8809;51.892;8.384;2023-07-16T01:36:39;99998.66;;;20.32;100.00
17383;BME280;8809;51.892;8.384;2023-07-16T01:39:07;100000.44;;;20.29;100.00
17383;BME280;8809;51.892;8.384;2023-07-16T01:41:34;99988.13;;;20.26;100.00
17383;BME280;8809;51.892;8.384;2023-07-16T01:44:01;99991.66;;;20.24;100.00
17383;BME280;8809;51.892;8.384;2023-07-16T01:46:29;99993.44;;;20.22;100.00
17383;BME280;8809;51.892;8.384;2023-07-16T01:48:57;100004.03;;;20.22;100.00
17383;BME280;8809;51.892;8.384;2023-07-16T01:51:24;99998.78;;;20.17;100.00
17383;BME280;8809;51.892;8.384;2023-07-16T01:53:51;99999.69;;;20.13;100.00
17383;BME280;8809;51.892;8.384;2023-07-16T01:56:19;100000.56;;;20.14;100.00
17383;BME280;8809;51.892;8.384;2023-07-16T01:58:46;99997.94;;;20.09;100.00
17383;BME280;8809;51.892;8.384;2023-07-16T02:01:13;99990.03;;;20.08;100.00
17383;BME280;8809;51.892;8.384;2023-07-16T02:03:40;99990.91;;;20.05;100.00
17383;BME280;8809;51.892;8.384;2023-07-16T02:06:08;99988.28;;;20.02;100.00
17383;BME280;8809;51.892;8.384;2023-07-16T02:08:35;99989.16;;;19.99;100.00
17383;BME280;8809;51.892;8.384;2023-07-16T02:11:03;99988.31;;;19.97;100.00
17383;BME280;8809;51.892;8.384;2023-07-16T02:13:30;99991.84;;;19.96;100.00
17383;BME280;8809;51.892;8.384;2023-07-16T02:15:57;100005.09;;;19.96;100.00
17383;BME280;8809;51.892;8.384;2023-07-16T02:18:24;99998.03;;;19.97;100.00
17383;BME280;8809;51.892;8.384;2023-07-16T02:20:51;100006.84;;;19.97;100.00
17383;BME280;8809;51.892;8.384;2023-07-16T02:23:19;100005.97;;;19.97;100.00
17383;BME280;8809;51.892;8.384;2023-07-16T02:25:46;100011.28;;;19.95;100.00
17383;BME280;8809;51.892;8.384;2023-07-16T02:28:16;100015.69;;;19.95;100.00
17383;BME280;8809;51.892;8.384;2023-07-16T02:30:43;100023.63;;;19.92;100.00
17383;BME280;8809;51.892;8.384;2023-07-16T02:33:11;100028.06;;;19.91;100.00
17383;BME280;8809;51.892;8.384;2023-07-16T02:35:38;100024.56;;;19.88;100.00
17383;BME280;8809;51.892;8.384;2023-07-16T02:38:05;100028.97;;;19.86;100.00
17383;BME280;8809;51.892;8.384;2023-07-16T02:40:33;100028.09;;;19.84;100.00
17383;BME280;8809;51.892;8.384;2023-07-16T02:43:01;100036.97;;;19.80;100.00
17383;BME280;8809;51.892;8.384;2023-07-16T02:45:28;100036.09;;;19.76;100.00
17383;BME280;8809;51.892;8.384;2023-07-16T02:47:55;100039.63;;;19.74;100.00
17383;BME280;8809;51.892;8.384;2023-07-16T02:50:33;100038.78;;;19.69;100.00
17383;BME280;8809;51.892;8.384;2023-07-16T02:53:01;100045.84;;;19.68;100.00
17383;BME280;8809;51.892;8.384;2023-07-16T02:55:28;100052.88;;;19.64;100.00
17383;BME280;8809;51.892;8.384;2023-07-16T02:57:56;100048.47;;;19.62;100.00
17383;BME280;8809;51.892;8.384;2023-07-16T03:00:23;100051.13;;;19.63;100.00
17383;BME280;8809;51.892;8.384;2023-07-16T03:02:50;100042.34;;;19.54;100.00
17383;BME280;8809;51.892;8.384;2023-07-16T03:05:17;100054.72;;;19.50;100.00
17383;BME280;8809;51.892;8.384;2023-07-16T03:07:45;100049.41;;;19.46;100.00
17383;BME280;8809;51.892;8.384;2023-07-16T03:10:12;100047.63;;;19.43;100.00
17383;BME280;8809;51.892;8.384;2023-07-16T03:12:39;100045.03;;;19.39;100.00
17383;BME280;8809;51.892;8.384;2023-07-16T03:15:09;100053.84;;;19.36;100.00
17383;BME280;8809;51.892;8.384;2023-07-16T03:17:36;100056.47;;;19.33;100.00
17383;BME280;8809;51.892;8.384;2023-07-16T03:20:04;100061.75;;;19.33;100.00
17383;BME280;8809;51.892;8.384;2023-07-16T03:22:31;100067.97;;;19.31;100.00
17383;BME280;8809;51.892;8.384;2023-07-16T03:24:59;100067.97;;;19.27;100.00
17383;BME280;8809;51.892;8.384;2023-07-16T03:27:26;100070.59;;;19.23;100.00
17383;BME280;8809;51.892;8.384;2023-07-16T03:29:53;100076.81;;;19.20;100.00
17383;BME280;8809;51.892;8.384;2023-07-16T03:32:22;100080.34;;;19.19;100.00
17383;BME280;8809;51.892;8.384;2023-07-16T03:34:48;100079.44;;;19.16;100.00
17383;BME280;8809;51.892;8.384;2023-07-16T03:37:15;100082.97;;;19.15;100.00
17383;BME280;8809;51.892;8.384;2023-07-16T03:39:43;100088.28;;;19.12;100.00
17383;BME280;8809;51.892;8.384;2023-07-16T03:42:10;100090.91;;;19.10;100.00
17383;BME280;8809;51.892;8.384;2023-07-16T03:44:37;100093.56;;;19.09;100.00
17383;BME280;8809;51.892;8.384;2023-07-16T03:47:04;100095.31;;;19.08;100.00
17383;BME280;8809;51.892;8.384;2023-07-16T03:49:33;100093.56;;;19.06;100.00
17383;BME280;8809;51.892;8.384;2023-07-16T03:52:00;100098.88;;;19.03;100.00
17383;BME280;8809;51.892;8.384;2023-07-16T03:54:27;100101.50;;;19.01;100.00
17383;BME280;8809;51.892;8.384;2023-07-16T03:56:54;100107.66;;;18.99;100.00
17383;BME280;8809;51.892;8.384;2023-07-16T03:59:21;100112.97;;;18.99;100.00
17383;BME280;8809;51.892;8.384;2023-07-16T04:01:48;100114.72;;;18.97;100.00
17383;BME280;8809;51.892;8.384;2023-07-16T04:04:15;100112.06;;;18.97;100.00
17383;BME280;8809;51.892;8.384;2023-07-16T04:06:44;100118.22;;;18.96;100.00
17383;BME280;8809;51.892;8.384;2023-07-16T04:09:11;100118.22;;;18.96;100.00
17383;BME280;8809;51.892;8.384;2023-07-16T04:11:38;100120.00;;;18.97;100.00
17383;BME280;8809;51.892;8.384;2023-07-16T04:14:05;100131.44;;;18.94;100.00
17383;BME280;8809;51.892;8.384;2023-07-16T04:16:32;100128.81;;;18.89;100.00
17383;BME280;8809;51.892;8.384;2023-07-16T04:19:00;100127.94;;;18.87;100.00
17383;BME280;8809;51.892;8.384;2023-07-16T04:21:27;100138.50;;;18.86;100.00
17383;BME280;8809;51.892;8.384;2023-07-16T04:23:56;100137.63;;;18.85;100.00
17383;BME280;8809;51.892;8.384;2023-07-16T04:26:23;100140.25;;;18.85;100.00
17383;BME280;8809;51.892;8.384;2023-07-16T04:28:50;100142.91;;;18.82;100.00
17383;BME280;8809;51.892;8.384;2023-07-16T04:31:17;100146.44;;;18.83;100.00
17383;BME280;8809;51.892;8.384;2023-07-16T04:33:44;100153.50;;;18.82;100.00
17383;BME280;8809;51.892;8.384;2023-07-16T04:36:11;100154.38;;;18.83;100.00
17383;BME280;8809;51.892;8.384;2023-07-16T04:38:38;100154.38;;;18.83;100.00
17383;BME280;8809;51.892;8.384;2023-07-16T04:41:06;100151.72;;;18.81;100.00
17383;BME280;8809;51.892;8.384;2023-07-16T04:43:34;100152.59;;;18.77;100.00
17383;BME280;8809;51.892;8.384;2023-07-16T04:46:01;100152.59;;;18.79;100.00
17383;BME280;8809;51.892;8.384;2023-07-16T04:48:28;100149.94;;;18.77;100.00
17383;BME280;8809;51.892;8.384;2023-07-16T04:50:55;100154.34;;;18.78;100.00
17383;BME280;8809;51.892;8.384;2023-07-16T04:53:23;100154.34;;;18.77;100.00
17383;BME280;8809;51.892;8.384;2023-07-16T04:55:50;100151.72;;;18.80;100.00
17383;BME280;8809;51.892;8.384;2023-07-16T04:58:18;100164.06;;;18.79;100.00
17383;BME280;8809;51.892;8.384;2023-07-16T05:00:45;100158.75;;;18.79;100.00
17383;BME280;8809;51.892;8.384;2023-07-16T05:03:13;100158.78;;;18.82;100.00
17383;BME280;8809;51.892;8.384;2023-07-16T05:05:40;100169.34;;;18.85;100.00
17383;BME280;8809;51.892;8.384;2023-07-16T05:08:07;100163.19;;;18.89;100.00
17383;BME280;8809;51.892;8.384;2023-07-16T05:10:34;100167.59;;;18.92;100.00
17383;BME280;8809;51.892;8.384;2023-07-16T05:13:01;100176.38;;;18.96;100.00
17383;BME280;8809;51.892;8.384;2023-07-16T05:15:31;100173.75;;;18.99;100.00
17383;BME280;8809;51.892;8.384;2023-07-16T05:17:59;100179.94;;;19.02;100.00
17383;BME280;8809;51.892;8.384;2023-07-16T05:20:26;100192.25;;;19.14;100.00
17383;BME280;8809;51.892;8.384;2023-07-16T05:22:53;100191.41;;;19.12;100.00
17383;BME280;8809;51.892;8.384;2023-07-16T05:25:20;100189.63;;;19.15;100.00
17383;BME280;8809;51.892;8.384;2023-07-16T05:27:47;100189.63;;;19.18;100.00
17383;BME280;8809;51.892;8.384;2023-07-16T05:30:15;100189.66;;;19.20;100.00
17383;BME280;8809;51.892;8.384;2023-07-16T05:32:43;100197.56;;;19.26;100.00
17383;BME280;8809;51.892;8.384;2023-07-16T05:35:10;100209.91;;;19.27;100.00
17383;BME280;8809;51.892;8.384;2023-07-16T05:37:38;100206.41;;;19.31;100.00
17383;BME280;8809;51.892;8.384;2023-07-16T05:40:06;100209.91;;;19.33;100.00
17383;BME280;8809;51.892;8.384;2023-07-16T05:42:34;100213.41;;;19.32;100.00
17383;BME280;8809;51.892;8.384;2023-07-16T05:45:01;100224.91;;;19.39;100.00
17383;BME280;8809;51.892;8.384;2023-07-16T05:47:28;100216.97;;;19.37;100.00
17383;BME280;8809;51.892;8.384;2023-07-16T05:49:57;100224.03;;;19.38;100.00
17383;BME280;8809;51.892;8.384;2023-07-16T05:52:24;100235.50;;;19.39;100.00
17383;BME280;8809;51.892;8.384;2023-07-16T05:54:51;100236.38;;;19.39;100.00
17383;BME280;8809;51.892;8.384;2023-07-16T05:57:18;100228.41;;;19.45;100.00
17383;BME280;8809;51.892;8.384;2023-07-16T05:59:45;100231.06;;;19.44;100.00
17383;BME280;8809;51.892;8.384;2023-07-16T06:02:12;100232.84;;;19.46;100.00
17383;BME280;8809;51.892;8.384;2023-07-16T06:04:39;100238.16;;;19.48;100.00
17383;BME280;8809;51.892;8.384;2023-07-16T06:07:08;100236.38;;;19.56;100.00
17383;BME280;8809;51.892;8.384;2023-07-16T06:09:35;100236.38;;;19.53;100.00
17383;BME280;8809;51.892;8.384;2023-07-16T06:12:02;100234.63;;;19.53;99.64
17383;BME280;8809;51.892;8.384;2023-07-16T06:14:29;100245.22;;;19.56;100.00
17383;BME280;8809;51.892;8.384;2023-07-16T06:16:56;100246.09;;;19.57;100.00
17383;BME280;8809;51.892;8.384;2023-07-16T06:19:23;100248.75;;;19.58;100.00
17383;BME280;8809;51.892;8.384;2023-07-16T06:21:51;100262.84;;;19.63;98.27
17383;BME280;8809;51.892;8.384;2023-07-16T06:24:19;100258.44;;;19.69;97.28
17383;BME280;8809;51.892;8.384;2023-07-16T06:26:47;100264.63;;;19.68;98.38
17383;BME280;8809;51.892;8.384;2023-07-16T06:29:14;100267.25;;;19.71;99.34
17383;BME280;8809;51.892;8.384;2023-07-16T06:31:42;100263.75;;;19.69;99.92
17383;BME280;8809;51.892;8.384;2023-07-16T06:34:09;100278.72;;;19.74;98.99
17383;BME280;8809;51.892;8.384;2023-07-16T06:36:37;100279.59;;;19.82;98.27
17383;BME280;8809;51.892;8.384;2023-07-16T06:39:04;100280.47;;;19.84;94.49
17383;BME280;8809;51.892;8.384;2023-07-16T06:41:33;100276.06;;;19.82;95.76
17383;BME280;8809;51.892;8.384;2023-07-16T06:44:00;100279.56;;;19.91;94.74
17383;BME280;8809;51.892;8.384;2023-07-16T06:46:28;100289.31;;;19.86;95.53
17383;BME280;8809;51.892;8.384;2023-07-16T06:48:55;100287.53;;;19.84;93.40
17383;BME280;8809;51.892;8.384;2023-07-16T06:51:22;100293.72;;;19.80;93.91
17383;BME280;8809;51.892;8.384;2023-07-16T06:53:49;100291.97;;;19.77;93.69
17383;BME280;8809;51.892;8.384;2023-07-16T06:56:16;100296.38;;;19.74;92.83
17383;BME280;8809;51.892;8.384;2023-07-16T06:58:45;100292.84;;;19.67;94.19
17383;BME280;8809;51.892;8.384;2023-07-16T07:01:12;100291.94;;;19.74;93.61
17383;BME280;8809;51.892;8.384;2023-07-16T07:03:39;100299.03;;;19.77;93.32
17383;BME280;8809;51.892;8.384;2023-07-16T07:06:07;100303.41;;;19.82;94.09
17383;BME280;8809;51.892;8.384;2023-07-16T07:08:36;100290.19;;;19.79;94.59
17383;BME280;8809;51.892;8.384;2023-07-16T07:11:04;100303.41;;;19.81;92.96
17383;BME280;8809;51.892;8.384;2023-07-16T07:13:31;100301.66;;;19.81;95.08
17383;BME280;8809;51.892;8.384;2023-07-16T07:16:00;100306.94;;;19.84;95.44
17383;BME280;8809;51.892;8.384;2023-07-16T07:18:27;100303.41;;;19.84;95.41
17383;BME280;8809;51.892;8.384;2023-07-16T07:20:54;100301.66;;;19.89;94.00
17383;BME280;8809;51.892;8.384;2023-07-16T07:23:21;100313.13;;;19.91;94.29
17383;BME280;8809;51.892;8.384;2023-07-16T07:25:49;100311.38;;;19.99;93.28
17383;BME280;8809;51.892;8.384;2023-07-16T07:28:17;100318.41;;;20.01;90.10
17383;BME280;8809;51.892;8.384;2023-07-16T07:30:45;100309.59;;;20.06;90.63
17383;BME280;8809;51.892;8.384;2023-07-16T07:33:13;100297.22;;;20.06;90.71
17383;BME280;8809;51.892;8.384;2023-07-16T07:35:40;100303.38;;;20.11;92.86
17383;BME280;8809;51.892;8.384;2023-07-16T07:38:09;100294.53;;;20.21;94.20
17383;BME280;8809;51.892;8.384;2023-07-16T07:40:36;100310.44;;;20.24;92.58
17383;BME280;8809;51.892;8.384;2023-07-16T07:43:03;100305.09;;;20.33;90.11
17383;BME280;8809;51.892;8.384;2023-07-16T07:45:31;100313.09;;;20.35;92.71
17383;BME280;8809;51.892;8.384;2023-07-16T07:47:58;100328.97;;;20.44;91.39
17383;BME280;8809;51.892;8.384;2023-07-16T07:50:26;100310.38;;;20.53;86.16
17383;BME280;8809;51.892;8.384;2023-07-16T07:52:54;100323.59;;;20.64;82.46
17383;BME280;8809;51.892;8.384;2023-07-16T07:55:21;100315.59;;;20.71;82.49
17383;BME280;8809;51.892;8.384;2023-07-16T07:57:48;100317.34;;;20.77;81.69
17383;BME280;8809;51.892;8.384;2023-07-16T08:00:16;100333.22;;;20.82;80.57
17383;BME280;8809;51.892;8.384;2023-07-16T08:02:43;100320.03;;;20.71;80.70
17383;BME280;8809;51.892;8.384;2023-07-16T08:05:10;100323.56;;;20.71;81.32
17383;BME280;8809;51.892;8.384;2023-07-16T08:07:39;100327.97;;;20.76;82.35
17383;BME280;8809;51.892;8.384;2023-07-16T08:10:07;100316.44;;;20.81;82.96
17383;BME280;8809;51.892;8.384;2023-07-16T08:12:34;100320.81;;;20.91;82.78
17383;BME280;8809;51.892;8.384;2023-07-16T08:15:01;100328.78;;;20.94;84.19
17383;BME280;8809;51.892;8.384;2023-07-16T08:17:29;100323.41;;;20.99;85.74
17383;BME280;8809;51.892;8.384;2023-07-16T08:19:56;100326.97;;;20.99;83.46
17383;BME280;8809;51.892;8.384;2023-07-16T08:22:23;100331.38;;;21.03;82.34
17383;BME280;8809;51.892;8.384;2023-07-16T08:24:52;100331.34;;;21.06;84.30
17383;BME280;8809;51.892;8.384;2023-07-16T08:27:19;100335.75;;;21.10;82.58
17383;BME280;8809;51.892;8.384;2023-07-16T08:29:46;100340.13;;;21.15;82.98
17383;BME280;8809;51.892;8.384;2023-07-16T08:32:13;100348.09;;;21.22;79.52
17383;BME280;8809;51.892;8.384;2023-07-16T08:34:41;100340.13;;;21.22;80.08
17383;BME280;8809;51.892;8.384;2023-07-16T08:37:09;100341.88;;;21.26;78.20
17383;BME280;8809;51.892;8.384;2023-07-16T08:39:36;100337.38;;;21.37;79.25
17383;BME280;8809;51.892;8.384;2023-07-16T08:42:06;100351.47;;;21.44;80.87
17383;BME280;8809;51.892;8.384;2023-07-16T08:44:36;100351.44;;;21.52;80.71
17383;BME280;8809;51.892;8.384;2023-07-16T08:47:05;100354.94;;;21.57;83.02
17383;BME280;8809;51.892;8.384;2023-07-16T08:49:33;100361.06;;;21.65;81.59
17383;BME280;8809;51.892;8.384;2023-07-16T08:52:02;100355.75;;;21.71;80.33
17383;BME280;8809;51.892;8.384;2023-07-16T08:54:29;100353.91;;;21.77;80.43
17383;BME280;8809;51.892;8.384;2023-07-16T08:56:57;100358.28;;;21.83;80.58
17383;BME280;8809;51.892;8.384;2023-07-16T08:59:26;100359.06;;;21.93;79.97
17383;BME280;8809;51.892;8.384;2023-07-16T09:01:54;100372.28;;;22.05;78.32
17383;BME280;8809;51.892;8.384;2023-07-16T09:04:22;100362.47;;;22.11;77.37
17383;BME280;8809;51.892;8.384;2023-07-16T09:06:50;100365.03;;;22.22;75.81
17383;BME280;8809;51.892;8.384;2023-07-16T09:09:21;100377.25;;;22.41;73.87
17383;BME280;8809;51.892;8.384;2023-07-16T09:11:49;100374.59;;;22.40;73.07
17383;BME280;8809;51.892;8.384;2023-07-16T09:14:17;100378.06;;;22.49;74.37
17383;BME280;8809;51.892;8.384;2023-07-16T09:16:49;100363.94;;;22.46;76.43
17383;BME280;8809;51.892;8.384;2023-07-16T09:19:16;100379.72;;;22.59;73.27
17383;BME280;8809;51.892;8.384;2023-07-16T09:21:46;100380.59;;;22.62;71.38
17383;BME280;8809;51.892;8.384;2023-07-16T09:24:14;100379.66;;;22.67;72.11
17383;BME280;8809;51.892;8.384;2023-07-16T09:26:48;100384.97;;;22.67;73.40
17383;BME280;8809;51.892;8.384;2023-07-16T09:29:15;100381.44;;;22.65;72.64
17383;BME280;8809;51.892;8.384;2023-07-16T09:31:56;100385.09;;;22.56;72.90
17383;BME280;8809;51.892;8.384;2023-07-16T09:34:23;100386.91;;;22.50;72.45
17383;BME280;8809;51.892;8.384;2023-07-16T09:36:53;100390.63;;;22.35;72.38
17383;BME280;8809;51.892;8.384;2023-07-16T09:39:22;100389.75;;;22.33;72.46
17383;BME280;8809;51.892;8.384;2023-07-16T09:41:49;100380.81;;;22.42;72.94
17383;BME280;8809;51.892;8.384;2023-07-16T09:44:17;100391.50;;;22.39;73.25
17383;BME280;8809;51.892;8.384;2023-07-16T09:46:45;100392.19;;;22.54;70.68
17383;BME280;8809;51.892;8.384;2023-07-16T09:49:15;100397.41;;;22.67;70.75
17383;BME280;8809;51.892;8.384;2023-07-16T09:51:43;100390.22;;;22.76;70.69
17383;BME280;8809;51.892;8.384;2023-07-16T09:54:13;100378.69;;;22.73;71.18
17383;BME280;8809;51.892;8.384;2023-07-16T09:56:43;100389.53;;;22.57;71.48
17383;BME280;8809;51.892;8.384;2023-07-16T09:59:14;100398.22;;;22.69;71.40
17383;BME280;8809;51.892;8.384;2023-07-16T10:01:42;100389.34;;;22.70;69.57
17383;BME280;8809;51.892;8.384;2023-07-16T10:04:16;100401.63;;;22.87;70.32
17383;BME280;8809;51.892;8.384;2023-07-16T10:06:51;100400.34;;;23.17;70.92
17383;BME280;8809;51.892;8.384;2023-07-16T10:09:34;100396.38;;;23.49;69.58
17383;BME280;8809;51.892;8.384;2023-07-16T10:12:23;100421.97;;;23.62;66.82
17383;BME280;8809;51.892;8.384;2023-07-16T10:14:53;100397.91;;;23.68;68.63
17383;BME280;8809;51.892;8.384;2023-07-16T10:17:23;100408.63;;;23.63;66.07
17383;BME280;8809;51.892;8.384;2023-07-16T10:19:56;100409.31;;;23.75;66.98
17383;BME280;8809;51.892;8.384;2023-07-16T10:22:37;100418.03;;;23.86;65.54
17383;BME280;8809;51.892;8.384;2023-07-16T10:25:08;100415.47;;;23.81;66.87
17383;BME280;8809;51.892;8.384;2023-07-16T10:27:35;100405.91;;;23.66;66.86
17383;BME280;8809;51.892;8.384;2023-07-16T10:30:05;100411.31;;;23.62;67.95
17383;BME280;8809;51.892;8.384;2023-07-16T10:32:33;100409.31;;;23.75;68.24
17383;BME280;8809;51.892;8.384;2023-07-16T10:35:03;100408.94;;;24.00;68.95
17383;BME280;8809;51.892;8.384;2023-07-16T10:37:32;100416.78;;;24.10;66.50
17383;BME280;8809;51.892;8.384;2023-07-16T10:40:02;100422.31;;;23.96;55.70
17383;BME280;8809;51.892;8.384;2023-07-16T10:42:33;100414.31;;;23.96;55.13
17383;BME280;8809;51.892;8.384;2023-07-16T10:45:00;100416.19;;;23.92;56.13
17383;BME280;8809;51.892;8.384;2023-07-16T10:47:31;100417.00;;;23.96;56.78
17383;BME280;8809;51.892;8.384;2023-07-16T10:49:58;100422.19;;;24.03;56.12
17383;BME280;8809;51.892;8.384;2023-07-16T10:52:27;100442.69;;;24.00;55.88
17383;BME280;8809;51.892;8.384;2023-07-16T10:54:54;100435.72;;;23.91;55.01
17383;BME280;8809;51.892;8.384;2023-07-16T10:57:24;100436.00;;;23.73;55.92
17383;BME280;8809;51.892;8.384;2023-07-16T10:59:51;100434.78;;;23.94;56.21
17383;BME280;8809;51.892;8.384;2023-07-16T11:02:20;100433.06;;;23.91;56.27
17383;BME280;8809;51.892;8.384;2023-07-16T11:04:47;100430.53;;;23.82;54.75
17383;BME280;8809;51.892;8.384;2023-07-16T11:07:15;100430.41;;;23.91;55.12
17383;BME280;8809;51.892;8.384;2023-07-16T11:09:46;100419.75;;;23.90;54.74
17383;BME280;8809;51.892;8.384;2023-07-16T11:12:15;100423.13;;;24.02;54.67
17383;BME280;8809;51.892;8.384;2023-07-16T11:14:44;100435.38;;;24.13;54.41
17383;BME280;8809;51.892;8.384;2023-07-16T11:17:12;100420.38;;;24.07;54.20
17383;BME280;8809;51.892;8.384;2023-07-16T11:19:40;100426.59;;;24.06;54.15
17383;BME280;8809;51.892;8.384;2023-07-16T11:22:09;100417.56;;;24.15;54.11
17383;BME280;8809;51.892;8.384;2023-07-16T11:24:37;100421.72;;;24.34;54.49
17383;BME280;8809;51.892;8.384;2023-07-16T11:27:12;100419.69;;;24.50;55.61
17383;BME280;8809;51.892;8.384;2023-07-16T11:29:45;100423.69;;;24.72;53.75
17383;BME280;8809;51.892;8.384;2023-07-16T11:32:12;100430.53;;;24.87;51.85
17383;BME280;8809;51.892;8.384;2023-07-16T11:34:51;100434.09;;;24.86;51.39
17383;BME280;8809;51.892;8.384;2023-07-16T11:37:19;100424.19;;;24.91;51.68
17383;BME280;8809;51.892;8.384;2023-07-16T11:39:47;100428.09;;;24.74;51.41
17383;BME280;8809;51.892;8.384;2023-07-16T11:42:19;100428.09;;;24.74;51.68
17383;BME280;8809;51.892;8.384;2023-07-16T11:44:49;100433.56;;;24.67;51.07
17383;BME280;8809;51.892;8.384;2023-07-16T11:47:17;100428.25;;;24.67;51.06
17383;BME280;8809;51.892;8.384;2023-07-16T11:49:44;100434.84;;;24.46;51.40
17383;BME280;8809;51.892;8.384;2023-07-16T11:52:11;100433.94;;;24.47;52.74
17383;BME280;8809;51.892;8.384;2023-07-16T11:54:38;100427.59;;;24.53;52.22
17383;BME280;8809;51.892;8.384;2023-07-16T11:57:06;100425.66;;;24.61;52.52
17383;BME280;8809;51.892;8.384;2023-07-16T11:59:35;100422.94;;;24.65;52.09
17383;BME280;8809;51.892;8.384;2023-07-16T12:02:02;100436.66;;;24.42;51.73
17383;BME280;8809;51.892;8.384;2023-07-16T12:04:29;100437.50;;;24.46;51.49
17383;BME280;8809;51.892;8.384;2023-07-16T12:06:57;100428.31;;;24.62;53.00
17383;BME280;8809;51.892;8.384;2023-07-16T12:09:24;100427.19;;;24.75;54.41
17383;BME280;8809;51.892;8.384;2023-07-16T12:11:51;100438.34;;;24.99;54.99
17383;BME280;8809;51.892;8.384;2023-07-16T12:14:18;100445.06;;;25.18;53.10
17383;BME280;8809;51.892;8.384;2023-07-16T12:16:47;100438.00;;;25.14;51.33
17383;BME280;8809;51.892;8.384;2023-07-16T12:19:15;100447.81;;;25.13;49.38
17383;BME280;8809;51.892;8.384;2023-07-16T12:21:42;100442.81;;;24.97;49.77
17383;BME280;8809;51.892;8.384;2023-07-16T12:24:09;100439.94;;;25.07;49.84
17383;BME280;8809;51.892;8.384;2023-07-16T12:26:37;100441.53;;;25.16;50.48
17383;BME280;8809;51.892;8.384;2023-07-16T12:29:04;100438.16;;;25.08;49.76
17383;BME280;8809;51.892;8.384;2023-07-16T12:31:32;100444.63;;;24.95;49.20
17383;BME280;8809;51.892;8.384;2023-07-16T12:34:01;100439.50;;;24.83;48.84
17383;BME280;8809;51.892;8.384;2023-07-16T12:36:28;100440.53;;;24.75;50.19
17383;BME280;8809;51.892;8.384;2023-07-16T12:38:55;100432.66;;;24.69;50.53
17383;BME280;8809;51.892;8.384;2023-07-16T12:41:22;100439.94;;;24.60;51.14
17383;BME280;8809;51.892;8.384;2023-07-16T12:43:50;100442.63;;;24.58;52.38
17383;BME280;8809;51.892;8.384;2023-07-16T12:46:17;100440.88;;;24.57;51.88
17383;BME280;8809;51.892;8.384;2023-07-16T12:48:48;100451.53;;;24.57;53.81
17383;BME280;8809;51.892;8.384;2023-07-16T12:51:17;100440.66;;;24.69;51.90
17383;BME280;8809;51.892;8.384;2023-07-16T12:53:44;100437.13;;;24.67;53.33
17383;BME280;8809;51.892;8.384;2023-07-16T12:56:12;100450.84;;;24.46;51.67
17383;BME280;8809;51.892;8.384;2023-07-16T12:58:39;100450.13;;;24.35;51.78
17383;BME280;8809;51.892;8.384;2023-07-16T13:01:06;100457.28;;;24.33;52.28
17383;BME280;8809;51.892;8.384;2023-07-16T13:03:34;100454.66;;;24.31;53.29
17383;BME280;8809;51.892;8.384;2023-07-16T13:06:01;100450.81;;;24.48;53.87